sensor_id;sensor_type;location;lat;lon;timestamp;temperature;humidity
37560;DHT22;23398;50.928;7.084;2024-02-15T00:01:30;15.80;94.70
37560;DHT22;23398;50.928;7.084;2024-02-15T00:03:56;15.80;94.60
37560;DHT22;23398;50.928;7.084;2024-02-15T00:06:22;15.80;94.70
37560;DHT22;23398;50.928;7.084;2024-02-15T00:08:48;15.80;94.60
37560;DHT22;23398;50.928;7.084;2024-02-15T00:11:17;15.80;94.50
37560;DHT22;23398;50.928;7.084;2024-02-15T00:13:43;15.80;94.50
37560;DHT22;23398;50.928;7.084;2024-02-15T00:16:14;15.80;94.50
37560;DHT22;23398;50.928;7.084;2024-02-15T00:18:40;15.80;94.60
37560;DHT22;23398;50.928;7.084;2024-02-15T00:21:05;15.80;94.50
37560;DHT22;23398;50.928;7.084;2024-02-15T00:23:31;15.80;94.50
37560;DHT22;23398;50.928;7.084;2024-02-15T00:25:58;15.80;94.40
37560;DHT22;23398;50.928;7.084;2024-02-15T00:28:23;15.80;94.40
37560;DHT22;23398;50.928;7.084;2024-02-15T00:30:49;15.80;94.30
37560;DHT22;23398;50.928;7.084;2024-02-15T00:33:15;15.80;94.40
37560;DHT22;23398;50.928;7.084;2024-02-15T00:35:42;15.80;94.30
37560;DHT22;23398;50.928;7.084;2024-02-15T00:38:07;15.90;94.30
37560;DHT22;23398;50.928;7.084;2024-02-15T00:40:33;15.80;94.30
37560;DHT22;23398;50.928;7.084;2024-02-15T00:42:58;15.80;94.40
37560;DHT22;23398;50.928;7.084;2024-02-15T00:45:24;15.80;94.30
37560;DHT22;23398;50.928;7.084;2024-02-15T00:47:50;15.90;94.40
37560;DHT22;23398;50.928;7.084;2024-02-15T00:50:16;15.80;94.20
37560;DHT22;23398;50.928;7.084;2024-02-15T00:52:41;15.80;94.20
37560;DHT22;23398;50.928;7.084;2024-02-15T00:55:07;15.80;94.30
37560;DHT22;23398;50.928;7.084;2024-02-15T00:57:33;15.80;94.30
37560;DHT22;23398;50.928;7.084;2024-02-15T00:59:58;15.80;94.30
37560;DHT22;23398;50.928;7.084;2024-02-15T01:02:25;15.80;94.40
37560;DHT22;23398;50.928;7.084;2024-02-15T01:04:51;15.80;94.40
37560;DHT22;23398;50.928;7.084;2024-02-15T01:07:18;15.80;94.40
37560;DHT22;23398;50.928;7.084;2024-02-15T01:09:44;15.80;94.40
37560;DHT22;23398;50.928;7.084;2024-02-15T01:12:10;15.80;94.50
37560;DHT22;23398;50.928;7.084;2024-02-15T01:14:36;15.80;94.50
37560;DHT22;23398;50.928;7.084;2024-02-15T01:17:02;15.90;94.60
37560;DHT22;23398;50.928;7.084;2024-02-15T01:19:28;15.80;94.50
37560;DHT22;23398;50.928;7.084;2024-02-15T01:21:53;15.70;94.40
37560;DHT22;23398;50.928;7.084;2024-02-15T01:24:19;15.70;94.50
37560;DHT22;23398;50.928;7.084;2024-02-15T01:26:44;15.80;94.50
37560;DHT22;23398;50.928;7.084;2024-02-15T01:29:10;15.80;94.50
37560;DHT22;23398;50.928;7.084;2024-02-15T01:31:37;15.70;94.40
37560;DHT22;23398;50.928;7.084;2024-02-15T01:34:04;15.70;94.30
37560;DHT22;23398;50.928;7.084;2024-02-15T01:36:29;15.80;94.40
37560;DHT22;23398;50.928;7.084;2024-02-15T01:38:56;15.70;94.30
37560;DHT22;23398;50.928;7.084;2024-02-15T01:41:21;15.70;94.30
37560;DHT22;23398;50.928;7.084;2024-02-15T01:43:47;15.70;94.30
37560;DHT22;23398;50.928;7.084;2024-02-15T01:46:14;15.70;94.30
37560;DHT22;23398;50.928;7.084;2024-02-15T01:48:41;15.70;94.20
37560;DHT22;23398;50.928;7.084;2024-02-15T01:51:07;15.80;94.20
37560;DHT22;23398;50.928;7.084;2024-02-15T01:53:35;15.70;94.20
37560;DHT22;23398;50.928;7.084;2024-02-15T01:56:01;15.70;94.20
37560;DHT22;23398;50.928;7.084;2024-02-15T01:58:27;15.70;94.30
37560;DHT22;23398;50.928;7.084;2024-02-15T02:00:53;15.70;94.30
37560;DHT22;23398;50.928;7.084;2024-02-15T02:03:22;15.70;94.30
37560;DHT22;23398;50.928;7.084;2024-02-15T02:05:47;15.70;94.40
37560;DHT22;23398;50.928;7.084;2024-02-15T02:08:13;15.70;94.40
37560;DHT22;23398;50.928;7.084;2024-02-15T02:10:39;15.70;94.40
37560;DHT22;23398;50.928;7.084;2024-02-15T02:13:05;15.70;94.40
37560;DHT22;23398;50.928;7.084;2024-02-15T02:15:32;15.70;94.30
37560;DHT22;23398;50.928;7.084;2024-02-15T02:18:01;15.70;94.30
37560;DHT22;23398;50.928;7.084;2024-02-15T02:20:26;15.70;94.40
37560;DHT22;23398;50.928;7.084;2024-02-15T02:22:54;15.70;94.20
37560;DHT22;23398;50.928;7.084;2024-02-15T02:25:23;15.70;94.20
37560;DHT22;23398;50.928;7.084;2024-02-15T02:27:52;15.70;94.20
37560;DHT22;23398;50.928;7.084;2024-02-15T02:30:17;15.70;94.20
37560;DHT22;23398;50.928;7.084;2024-02-15T02:32:45;15.60;94.20
37560;DHT22;23398;50.928;7.084;2024-02-15T02:35:11;15.60;94.20
37560;DHT22;23398;50.928;7.084;2024-02-15T02:37:39;15.60;94.10
37560;DHT22;23398;50.928;7.084;2024-02-15T02:40:05;15.60;94.20
37560;DHT22;23398;50.928;7.084;2024-02-15T02:42:35;15.60;94.20
37560;DHT22;23398;50.928;7.084;2024-02-15T02:45:01;15.60;94.30
37560;DHT22;23398;50.928;7.084;2024-02-15T02:47:26;15.60;94.40
37560;DHT22;23398;50.928;7.084;2024-02-15T02:49:52;15.50;94.50
37560;DHT22;23398;50.928;7.084;2024-02-15T02:52:17;15.50;94.50
37560;DHT22;23398;50.928;7.084;2024-02-15T02:54:43;15.50;94.60
37560;DHT22;23398;50.928;7.084;2024-02-15T02:57:09;15.50;94.60
37560;DHT22;23398;50.928;7.084;2024-02-15T02:59:34;15.50;94.70
37560;DHT22;23398;50.928;7.084;2024-02-15T03:02:01;15.50;94.60
37560;DHT22;23398;50.928;7.084;2024-02-15T03:04:29;15.50;94.60
37560;DHT22;23398;50.928;7.084;2024-02-15T03:06:55;15.50;94.70
37560;DHT22;23398;50.928;7.084;2024-02-15T03:09:22;15.50;94.60
37560;DHT22;23398;50.928;7.084;2024-02-15T03:11:48;15.50;94.70
37560;DHT22;23398;50.928;7.084;2024-02-15T03:14:15;15.50;94.80
37560;DHT22;23398;50.928;7.084;2024-02-15T03:16:40;15.50;94.80
37560;DHT22;23398;50.928;7.084;2024-02-15T03:19:06;15.50;94.70
37560;DHT22;23398;50.928;7.084;2024-02-15T03:21:34;15.50;94.80
37560;DHT22;23398;50.928;7.084;2024-02-15T03:24:00;15.50;94.70
37560;DHT22;23398;50.928;7.084;2024-02-15T03:26:32;15.50;94.80
37560;DHT22;23398;50.928;7.084;2024-02-15T03:29:05;15.50;94.90
37560;DHT22;23398;50.928;7.084;2024-02-15T03:31:35;15.50;94.70
37560;DHT22;23398;50.928;7.084;2024-02-15T03:34:05;15.50;94.80
37560;DHT22;23398;50.928;7.084;2024-02-15T03:36:31;15.50;94.80
37560;DHT22;23398;50.928;7.084;2024-02-15T03:38:56;15.50;94.80
37560;DHT22;23398;50.928;7.084;2024-02-15T03:41:22;15.50;94.90
37560;DHT22;23398;50.928;7.084;2024-02-15T03:43:48;15.50;94.90
37560;DHT22;23398;50.928;7.084;2024-02-15T03:46:14;15.50;94.80
37560;DHT22;23398;50.928;7.084;2024-02-15T03:48:42;15.50;94.80
37560;DHT22;23398;50.928;7.084;2024-02-15T03:51:09;15.50;94.90
37560;DHT22;23398;50.928;7.084;2024-02-15T03:53:35;15.50;94.80
37560;DHT22;23398;50.928;7.084;2024-02-15T03:56:04;15.50;94.80
37560;DHT22;23398;50.928;7.084;2024-02-15T03:58:29;15.50;94.80
37560;DHT22;23398;50.928;7.084;2024-02-15T04:00:58;15.50;94.80
37560;DHT22;23398;50.928;7.084;2024-02-15T04:03:24;15.50;94.80
37560;DHT22;23398;50.928;7.084;2024-02-15T04:05:49;15.50;94.90
37560;DHT22;23398;50.928;7.084;2024-02-15T04:08:15;15.50;94.90
37560;DHT22;23398;50.928;7.084;2024-02-15T04:10:42;15.50;95.00
37560;DHT22;23398;50.928;7.084;2024-02-15T04:13:07;15.50;95.00
37560;DHT22;23398;50.928;7.084;2024-02-15T04:15:33;15.50;95.00
37560;DHT22;23398;50.928;7.084;2024-02-15T04:17:59;15.50;94.90
37560;DHT22;23398;50.928;7.084;2024-02-15T04:20:25;15.50;94.90
37560;DHT22;23398;50.928;7.084;2024-02-15T04:22:52;15.50;94.90
37560;DHT22;23398;50.928;7.084;2024-02-15T04:25:17;15.50;94.90
37560;DHT22;23398;50.928;7.084;2024-02-15T04:27:46;15.50;94.80
37560;DHT22;23398;50.928;7.084;2024-02-15T04:30:12;15.50;94.80
37560;DHT22;23398;50.928;7.084;2024-02-15T04:32:38;15.50;94.80
37560;DHT22;23398;50.928;7.084;2024-02-15T04:35:04;15.50;94.80
37560;DHT22;23398;50.928;7.084;2024-02-15T04:37:30;15.60;94.90
37560;DHT22;23398;50.928;7.084;2024-02-15T04:39:58;15.50;94.90
37560;DHT22;23398;50.928;7.084;2024-02-15T04:42:24;15.50;94.90
37560;DHT22;23398;50.928;7.084;2024-02-15T04:44:52;15.50;94.90
37560;DHT22;23398;50.928;7.084;2024-02-15T04:47:19;15.50;94.90
37560;DHT22;23398;50.928;7.084;2024-02-15T04:49:45;15.50;94.90
37560;DHT22;23398;50.928;7.084;2024-02-15T04:52:11;15.50;94.90
37560;DHT22;23398;50.928;7.084;2024-02-15T04:54:36;15.60;95.00
37560;DHT22;23398;50.928;7.084;2024-02-15T04:57:02;15.60;95.00
37560;DHT22;23398;50.928;7.084;2024-02-15T04:59:27;15.60;95.00
37560;DHT22;23398;50.928;7.084;2024-02-15T05:01:54;15.60;95.00
37560;DHT22;23398;50.928;7.084;2024-02-15T05:04:21;15.60;94.90
37560;DHT22;23398;50.928;7.084;2024-02-15T05:06:48;15.60;94.90
37560;DHT22;23398;50.928;7.084;2024-02-15T05:09:13;15.60;94.90
37560;DHT22;23398;50.928;7.084;2024-02-15T05:11:42;15.70;94.90
37560;DHT22;23398;50.928;7.084;2024-02-15T05:14:11;15.70;94.50
37560;DHT22;23398;50.928;7.084;2024-02-15T05:16:37;15.70;94.60
37560;DHT22;23398;50.928;7.084;2024-02-15T05:19:09;15.70;94.50
37560;DHT22;23398;50.928;7.084;2024-02-15T05:21:38;15.70;94.90
37560;DHT22;23398;50.928;7.084;2024-02-15T05:24:04;15.70;94.50
37560;DHT22;23398;50.928;7.084;2024-02-15T05:26:30;15.70;94.50
37560;DHT22;23398;50.928;7.084;2024-02-15T05:28:56;15.80;94.50
37560;DHT22;23398;50.928;7.084;2024-02-15T05:31:22;15.80;94.40
37560;DHT22;23398;50.928;7.084;2024-02-15T05:33:50;15.80;94.30
37560;DHT22;23398;50.928;7.084;2024-02-15T05:36:18;15.80;94.30
37560;DHT22;23398;50.928;7.084;2024-02-15T05:38:51;15.80;94.10
37560;DHT22;23398;50.928;7.084;2024-02-15T05:41:17;15.80;94.10
37560;DHT22;23398;50.928;7.084;2024-02-15T05:43:43;15.90;94.00
37560;DHT22;23398;50.928;7.084;2024-02-15T05:46:10;15.80;94.00
37560;DHT22;23398;50.928;7.084;2024-02-15T05:48:36;15.90;94.00
37560;DHT22;23398;50.928;7.084;2024-02-15T05:51:07;15.80;93.80
37560;DHT22;23398;50.928;7.084;2024-02-15T05:53:33;15.90;93.80
37560;DHT22;23398;50.928;7.084;2024-02-15T05:56:05;15.90;93.70
37560;DHT22;23398;50.928;7.084;2024-02-15T05:58:31;15.90;93.70
37560;DHT22;23398;50.928;7.084;2024-02-15T06:00:57;15.90;93.70
37560;DHT22;23398;50.928;7.084;2024-02-15T06:03:30;15.90;93.70
37560;DHT22;23398;50.928;7.084;2024-02-15T06:05:58;15.90;93.60
37560;DHT22;23398;50.928;7.084;2024-02-15T06:08:27;15.90;93.60
37560;DHT22;23398;50.928;7.084;2024-02-15T06:10:55;15.90;93.60
37560;DHT22;23398;50.928;7.084;2024-02-15T06:13:22;15.90;93.60
37560;DHT22;23398;50.928;7.084;2024-02-15T06:15:47;15.90;93.50
37560;DHT22;23398;50.928;7.084;2024-02-15T06:18:18;15.90;93.50
37560;DHT22;23398;50.928;7.084;2024-02-15T06:20:49;15.90;93.50
37560;DHT22;23398;50.928;7.084;2024-02-15T06:23:16;15.90;93.50
37560;DHT22;23398;50.928;7.084;2024-02-15T06:25:43;15.90;93.40
37560;DHT22;23398;50.928;7.084;2024-02-15T06:28:09;15.90;93.40
37560;DHT22;23398;50.928;7.084;2024-02-15T06:30:53;15.90;93.40
37560;DHT22;23398;50.928;7.084;2024-02-15T06:33:37;15.90;93.40
37560;DHT22;23398;50.928;7.084;2024-02-15T06:36:21;15.90;93.40
37560;DHT22;23398;50.928;7.084;2024-02-15T06:39:05;16.00;93.50
37560;DHT22;23398;50.928;7.084;2024-02-15T06:41:50;15.90;93.40
37560;DHT22;23398;50.928;7.084;2024-02-15T06:44:15;15.90;93.40
37560;DHT22;23398;50.928;7.084;2024-02-15T06:46:41;15.90;93.40
37560;DHT22;23398;50.928;7.084;2024-02-15T06:49:06;15.90;93.50
37560;DHT22;23398;50.928;7.084;2024-02-15T06:51:32;15.90;93.50
37560;DHT22;23398;50.928;7.084;2024-02-15T06:53:57;15.90;93.50
37560;DHT22;23398;50.928;7.084;2024-02-15T06:56:23;15.90;93.50
37560;DHT22;23398;50.928;7.084;2024-02-15T06:58:50;15.90;93.50
37560;DHT22;23398;50.928;7.084;2024-02-15T07:01:15;15.90;93.50
37560;DHT22;23398;50.928;7.084;2024-02-15T07:03:42;15.90;93.30
37560;DHT22;23398;50.928;7.084;2024-02-15T07:06:10;15.90;93.30
37560;DHT22;23398;50.928;7.084;2024-02-15T07:08:35;15.90;93.30
37560;DHT22;23398;50.928;7.084;2024-02-15T07:11:01;15.90;93.40
37560;DHT22;23398;50.928;7.084;2024-02-15T07:13:29;15.90;93.40
37560;DHT22;23398;50.928;7.084;2024-02-15T07:15:54;15.90;93.40
37560;DHT22;23398;50.928;7.084;2024-02-15T07:18:20;15.90;93.50
37560;DHT22;23398;50.928;7.084;2024-02-15T07:20:47;15.90;93.40
37560;DHT22;23398;50.928;7.084;2024-02-15T07:23:13;16.00;93.50
37560;DHT22;23398;50.928;7.084;2024-02-15T07:25:41;16.00;93.50
37560;DHT22;23398;50.928;7.084;2024-02-15T07:28:06;16.00;93.60
37560;DHT22;23398;50.928;7.084;2024-02-15T07:30:34;16.00;93.60
37560;DHT22;23398;50.928;7.084;2024-02-15T07:33:00;16.00;93.60
37560;DHT22;23398;50.928;7.084;2024-02-15T07:35:25;16.00;93.60
37560;DHT22;23398;50.928;7.084;2024-02-15T07:37:52;16.00;93.70
37560;DHT22;23398;50.928;7.084;2024-02-15T07:40:21;16.00;93.70
37560;DHT22;23398;50.928;7.084;2024-02-15T07:42:48;16.00;93.80
37560;DHT22;23398;50.928;7.084;2024-02-15T07:45:14;15.90;93.80
37560;DHT22;23398;50.928;7.084;2024-02-15T07:47:40;16.00;94.00
37560;DHT22;23398;50.928;7.084;2024-02-15T07:50:05;16.00;94.00
37560;DHT22;23398;50.928;7.084;2024-02-15T07:52:34;15.90;94.10
37560;DHT22;23398;50.928;7.084;2024-02-15T07:55:01;16.00;94.20
37560;DHT22;23398;50.928;7.084;2024-02-15T07:57:33;16.10;94.20
37560;DHT22;23398;50.928;7.084;2024-02-15T07:59:58;16.00;94.20
37560;DHT22;23398;50.928;7.084;2024-02-15T08:02:24;16.00;94.30
37560;DHT22;23398;50.928;7.084;2024-02-15T08:04:54;16.00;94.30
37560;DHT22;23398;50.928;7.084;2024-02-15T08:07:19;16.00;94.30
37560;DHT22;23398;50.928;7.084;2024-02-15T08:09:46;16.00;94.30
37560;DHT22;23398;50.928;7.084;2024-02-15T08:12:12;16.00;94.30
37560;DHT22;23398;50.928;7.084;2024-02-15T08:14:37;16.00;94.20
37560;DHT22;23398;50.928;7.084;2024-02-15T08:17:05;16.00;94.30
37560;DHT22;23398;50.928;7.084;2024-02-15T08:19:33;16.10;94.40
37560;DHT22;23398;50.928;7.084;2024-02-15T08:22:04;16.10;94.50
37560;DHT22;23398;50.928;7.084;2024-02-15T08:24:30;16.10;94.50
37560;DHT22;23398;50.928;7.084;2024-02-15T08:26:56;16.10;94.40
37560;DHT22;23398;50.928;7.084;2024-02-15T08:29:24;16.10;94.40
37560;DHT22;23398;50.928;7.084;2024-02-15T08:31:50;16.10;94.30
37560;DHT22;23398;50.928;7.084;2024-02-15T08:34:16;16.10;94.40
37560;DHT22;23398;50.928;7.084;2024-02-15T08:36:44;16.10;94.40
37560;DHT22;23398;50.928;7.084;2024-02-15T08:39:09;16.10;94.40
37560;DHT22;23398;50.928;7.084;2024-02-15T08:41:38;16.10;94.70
37560;DHT22;23398;50.928;7.084;2024-02-15T08:44:05;16.10;94.60
37560;DHT22;23398;50.928;7.084;2024-02-15T08:46:35;16.10;94.40
37560;DHT22;23398;50.928;7.084;2024-02-15T08:49:02;16.10;94.70
37560;DHT22;23398;50.928;7.084;2024-02-15T08:51:31;16.10;94.80
37560;DHT22;23398;50.928;7.084;2024-02-15T08:53:58;16.10;94.80
37560;DHT22;23398;50.928;7.084;2024-02-15T08:56:25;16.10;94.90
37560;DHT22;23398;50.928;7.084;2024-02-15T08:58:51;16.00;94.80
37560;DHT22;23398;50.928;7.084;2024-02-15T09:01:16;16.00;94.80
37560;DHT22;23398;50.928;7.084;2024-02-15T09:03:42;16.00;94.70
37560;DHT22;23398;50.928;7.084;2024-02-15T09:06:08;16.00;94.80
37560;DHT22;23398;50.928;7.084;2024-02-15T09:08:34;16.00;94.80
37560;DHT22;23398;50.928;7.084;2024-02-15T09:10:59;16.00;94.80
37560;DHT22;23398;50.928;7.084;2024-02-15T09:13:25;16.00;94.90
37560;DHT22;23398;50.928;7.084;2024-02-15T09:15:50;16.00;95.20
37560;DHT22;23398;50.928;7.084;2024-02-15T09:18:16;16.00;95.40
37560;DHT22;23398;50.928;7.084;2024-02-15T09:20:48;16.00;95.60
37560;DHT22;23398;50.928;7.084;2024-02-15T09:23:14;16.00;95.60
37560;DHT22;23398;50.928;7.084;2024-02-15T09:25:40;16.10;95.70
37560;DHT22;23398;50.928;7.084;2024-02-15T09:28:08;16.10;95.70
37560;DHT22;23398;50.928;7.084;2024-02-15T09:30:34;16.20;95.80
37560;DHT22;23398;50.928;7.084;2024-02-15T09:33:01;16.20;95.80
37560;DHT22;23398;50.928;7.084;2024-02-15T09:35:30;16.30;96.00
37560;DHT22;23398;50.928;7.084;2024-02-15T09:37:56;16.40;96.10
37560;DHT22;23398;50.928;7.084;2024-02-15T09:40:23;16.60;96.30
37560;DHT22;23398;50.928;7.084;2024-02-15T09:42:52;16.70;96.00
37560;DHT22;23398;50.928;7.084;2024-02-15T09:45:18;16.80;95.60
37560;DHT22;23398;50.928;7.084;2024-02-15T09:47:46;17.00;95.00
37560;DHT22;23398;50.928;7.084;2024-02-15T09:50:16;17.10;94.50
37560;DHT22;23398;50.928;7.084;2024-02-15T09:52:52;17.20;93.90
37560;DHT22;23398;50.928;7.084;2024-02-15T09:55:18;17.30;93.50
37560;DHT22;23398;50.928;7.084;2024-02-15T09:57:45;17.40;93.20
37560;DHT22;23398;50.928;7.084;2024-02-15T10:00:15;17.40;92.90
37560;DHT22;23398;50.928;7.084;2024-02-15T10:02:51;17.50;92.90
37560;DHT22;23398;50.928;7.084;2024-02-15T10:05:21;17.60;93.00
37560;DHT22;23398;50.928;7.084;2024-02-15T10:07:48;17.60;92.90
37560;DHT22;23398;50.928;7.084;2024-02-15T10:10:22;17.70;92.90
37560;DHT22;23398;50.928;7.084;2024-02-15T10:12:49;17.80;92.70
37560;DHT22;23398;50.928;7.084;2024-02-15T10:15:32;17.70;92.40
37560;DHT22;23398;50.928;7.084;2024-02-15T10:17:59;18.00;91.90
37560;DHT22;23398;50.928;7.084;2024-02-15T10:20:25;18.10;91.80
37560;DHT22;23398;50.928;7.084;2024-02-15T10:25:29;18.30;91.20
37560;DHT22;23398;50.928;7.084;2024-02-15T10:28:08;18.30;90.60
37560;DHT22;23398;50.928;7.084;2024-02-15T10:30:43;18.40;90.10
37560;DHT22;23398;50.928;7.084;2024-02-15T10:33:09;18.50;89.70
37560;DHT22;23398;50.928;7.084;2024-02-15T10:35:35;18.60;88.80
37560;DHT22;23398;50.928;7.084;2024-02-15T10:38:11;18.60;87.60
37560;DHT22;23398;50.928;7.084;2024-02-15T10:40:39;18.60;86.70
37560;DHT22;23398;50.928;7.084;2024-02-15T10:43:09;18.70;86.80
37560;DHT22;23398;50.928;7.084;2024-02-15T10:45:39;18.70;86.70
37560;DHT22;23398;50.928;7.084;2024-02-15T10:48:11;18.70;86.30
37560;DHT22;23398;50.928;7.084;2024-02-15T10:50:41;18.80;85.80
37560;DHT22;23398;50.928;7.084;2024-02-15T10:53:30;18.80;85.70
37560;DHT22;23398;50.928;7.084;2024-02-15T10:58:32;18.90;85.90
37560;DHT22;23398;50.928;7.084;2024-02-15T11:01:06;19.00;85.80
37560;DHT22;23398;50.928;7.084;2024-02-15T11:03:56;19.10;85.20
37560;DHT22;23398;50.928;7.084;2024-02-15T11:06:26;19.20;84.20
37560;DHT22;23398;50.928;7.084;2024-02-15T11:08:52;19.40;83.90
37560;DHT22;23398;50.928;7.084;2024-02-15T11:11:18;19.50;83.20
37560;DHT22;23398;50.928;7.084;2024-02-15T11:13:46;19.60;82.20
37560;DHT22;23398;50.928;7.084;2024-02-15T11:16:50;19.70;81.40
37560;DHT22;23398;50.928;7.084;2024-02-15T11:22:01;19.90;79.10
37560;DHT22;23398;50.928;7.084;2024-02-15T11:24:32;19.90;79.20
37560;DHT22;23398;50.928;7.084;2024-02-15T11:27:02;20.00;78.80
37560;DHT22;23398;50.928;7.084;2024-02-15T11:35:17;20.20;77.40
37560;DHT22;23398;50.928;7.084;2024-02-15T11:40:19;20.40;76.90
37560;DHT22;23398;50.928;7.084;2024-02-15T11:42:45;20.50;76.60
37560;DHT22;23398;50.928;7.084;2024-02-15T11:45:12;20.60;75.90
37560;DHT22;23398;50.928;7.084;2024-02-15T11:47:39;20.70;75.20
37560;DHT22;23398;50.928;7.084;2024-02-15T11:50:10;20.80;74.40
37560;DHT22;23398;50.928;7.084;2024-02-15T11:53:25;20.80;73.90
37560;DHT22;23398;50.928;7.084;2024-02-15T11:55:35;20.90;73.60
37560;DHT22;23398;50.928;7.084;2024-02-15T11:58:02;21.00;73.10
37560;DHT22;23398;50.928;7.084;2024-02-15T12:00:59;21.00;72.80
37560;DHT22;23398;50.928;7.084;2024-02-15T12:03:43;21.10;72.70
37560;DHT22;23398;50.928;7.084;2024-02-15T12:06:27;21.10;72.10
37560;DHT22;23398;50.928;7.084;2024-02-15T12:09:12;21.20;72.00
37560;DHT22;23398;50.928;7.084;2024-02-15T12:11:59;21.30;71.80
37560;DHT22;23398;50.928;7.084;2024-02-15T12:14:43;21.40;71.90
37560;DHT22;23398;50.928;7.084;2024-02-15T12:17:27;21.30;71.60
37560;DHT22;23398;50.928;7.084;2024-02-15T12:20:11;21.40;71.20
37560;DHT22;23398;50.928;7.084;2024-02-15T12:22:45;21.40;71.10
37560;DHT22;23398;50.928;7.084;2024-02-15T12:25:16;21.50;70.70
37560;DHT22;23398;50.928;7.084;2024-02-15T12:27:43;21.50;70.00
37560;DHT22;23398;50.928;7.084;2024-02-15T12:30:18;21.60;69.70
37560;DHT22;23398;50.928;7.084;2024-02-15T12:32:47;21.60;69.00
37560;DHT22;23398;50.928;7.084;2024-02-15T12:35:15;21.60;69.20
37560;DHT22;23398;50.928;7.084;2024-02-15T12:37:49;21.60;69.00
37560;DHT22;23398;50.928;7.084;2024-02-15T12:40:38;21.60;69.50
37560;DHT22;23398;50.928;7.084;2024-02-15T12:43:06;21.60;68.10
37560;DHT22;23398;50.928;7.084;2024-02-15T12:45:38;21.60;68.20
37560;DHT22;23398;50.928;7.084;2024-02-15T12:48:07;21.70;68.00
37560;DHT22;23398;50.928;7.084;2024-02-15T12:50:33;21.60;67.80
37560;DHT22;23398;50.928;7.084;2024-02-15T12:52:59;21.60;67.60
37560;DHT22;23398;50.928;7.084;2024-02-15T12:55:29;21.60;67.60
37560;DHT22;23398;50.928;7.084;2024-02-15T12:58:06;21.50;67.30
37560;DHT22;23398;50.928;7.084;2024-02-15T13:00:36;21.50;66.90
37560;DHT22;23398;50.928;7.084;2024-02-15T13:03:05;21.50;67.20
37560;DHT22;23398;50.928;7.084;2024-02-15T13:05:34;21.60;67.50
37560;DHT22;23398;50.928;7.084;2024-02-15T13:08:00;21.50;68.00
37560;DHT22;23398;50.928;7.084;2024-02-15T13:10:31;21.50;67.10
37560;DHT22;23398;50.928;7.084;2024-02-15T13:12:57;21.50;66.60
37560;DHT22;23398;50.928;7.084;2024-02-15T13:15:24;21.60;66.80
37560;DHT22;23398;50.928;7.084;2024-02-15T13:17:53;21.60;66.50
37560;DHT22;23398;50.928;7.084;2024-02-15T13:20:21;21.50;66.20
37560;DHT22;23398;50.928;7.084;2024-02-15T13:22:55;21.50;66.00
37560;DHT22;23398;50.928;7.084;2024-02-15T13:25:25;21.60;66.20
37560;DHT22;23398;50.928;7.084;2024-02-15T13:27:51;21.50;66.10
37560;DHT22;23398;50.928;7.084;2024-02-15T13:30:16;21.60;66.10
37560;DHT22;23398;50.928;7.084;2024-02-15T13:32:48;21.50;65.90
37560;DHT22;23398;50.928;7.084;2024-02-15T13:35:16;21.50;65.70
37560;DHT22;23398;50.928;7.084;2024-02-15T13:40:15;21.40;65.40
37560;DHT22;23398;50.928;7.084;2024-02-15T13:42:47;21.40;65.30
37560;DHT22;23398;50.928;7.084;2024-02-15T13:45:22;21.30;65.00
37560;DHT22;23398;50.928;7.084;2024-02-15T13:47:49;21.30;65.20
37560;DHT22;23398;50.928;7.084;2024-02-15T13:50:16;21.20;65.00
37560;DHT22;23398;50.928;7.084;2024-02-15T13:52:43;21.10;64.90
37560;DHT22;23398;50.928;7.084;2024-02-15T13:55:16;21.10;65.00
37560;DHT22;23398;50.928;7.084;2024-02-15T13:57:43;21.10;65.00
37560;DHT22;23398;50.928;7.084;2024-02-15T14:00:13;21.10;65.30
37560;DHT22;23398;50.928;7.084;2024-02-15T14:02:54;21.10;65.20
37560;DHT22;23398;50.928;7.084;2024-02-15T14:05:21;21.00;65.20
37560;DHT22;23398;50.928;7.084;2024-02-15T14:07:54;21.10;65.50
37560;DHT22;23398;50.928;7.084;2024-02-15T14:10:21;21.00;65.30
37560;DHT22;23398;50.928;7.084;2024-02-15T14:12:50;21.00;65.30
37560;DHT22;23398;50.928;7.084;2024-02-15T14:15:28;21.10;65.40
37560;DHT22;23398;50.928;7.084;2024-02-15T14:17:54;21.10;65.30
37560;DHT22;23398;50.928;7.084;2024-02-15T14:20:21;21.10;65.30
37560;DHT22;23398;50.928;7.084;2024-02-15T14:22:48;21.10;65.20
37560;DHT22;23398;50.928;7.084;2024-02-15T14:25:15;21.10;65.00
37560;DHT22;23398;50.928;7.084;2024-02-15T14:27:41;21.20;65.10
37560;DHT22;23398;50.928;7.084;2024-02-15T14:30:08;21.20;64.90
37560;DHT22;23398;50.928;7.084;2024-02-15T14:32:52;21.20;64.70
37560;DHT22;23398;50.928;7.084;2024-02-15T14:35:37;21.30;65.00
37560;DHT22;23398;50.928;7.084;2024-02-15T14:38:11;21.20;64.50
37560;DHT22;23398;50.928;7.084;2024-02-15T14:40:39;21.20;64.50
37560;DHT22;23398;50.928;7.084;2024-02-15T14:43:05;21.20;65.00
37560;DHT22;23398;50.928;7.084;2024-02-15T14:45:35;21.20;64.10
37560;DHT22;23398;50.928;7.084;2024-02-15T14:48:03;21.20;63.90
37560;DHT22;23398;50.928;7.084;2024-02-15T14:50:29;21.20;64.70
37560;DHT22;23398;50.928;7.084;2024-02-15T14:52:55;21.10;63.70
37560;DHT22;23398;50.928;7.084;2024-02-15T14:55:21;21.10;63.80
37560;DHT22;23398;50.928;7.084;2024-02-15T14:57:48;21.10;63.80
37560;DHT22;23398;50.928;7.084;2024-02-15T15:00:14;21.00;63.60
37560;DHT22;23398;50.928;7.084;2024-02-15T15:02:45;21.00;63.70
37560;DHT22;23398;50.928;7.084;2024-02-15T15:05:14;21.00;63.40
37560;DHT22;23398;50.928;7.084;2024-02-15T15:07:59;21.00;63.80
37560;DHT22;23398;50.928;7.084;2024-02-15T15:10:45;20.90;63.80
37560;DHT22;23398;50.928;7.084;2024-02-15T15:13:30;20.90;63.70
37560;DHT22;23398;50.928;7.084;2024-02-15T15:15:55;20.90;63.80
37560;DHT22;23398;50.928;7.084;2024-02-15T15:18:21;20.90;63.70
37560;DHT22;23398;50.928;7.084;2024-02-15T15:20:46;20.80;63.70
37560;DHT22;23398;50.928;7.084;2024-02-15T15:23:13;20.70;63.60
37560;DHT22;23398;50.928;7.084;2024-02-15T15:25:42;20.70;63.50
37560;DHT22;23398;50.928;7.084;2024-02-15T15:28:08;20.60;63.30
37560;DHT22;23398;50.928;7.084;2024-02-15T15:30:33;20.60;64.20
37560;DHT22;23398;50.928;7.084;2024-02-15T15:33:00;20.50;63.40
37560;DHT22;23398;50.928;7.084;2024-02-15T15:35:26;20.50;63.40
37560;DHT22;23398;50.928;7.084;2024-02-15T15:37:53;20.40;63.10
37560;DHT22;23398;50.928;7.084;2024-02-15T15:40:19;20.40;63.20
37560;DHT22;23398;50.928;7.084;2024-02-15T15:42:45;20.30;63.20
37560;DHT22;23398;50.928;7.084;2024-02-15T15:45:11;20.30;63.30
37560;DHT22;23398;50.928;7.084;2024-02-15T15:47:38;20.20;63.30
37560;DHT22;23398;50.928;7.084;2024-02-15T15:50:05;20.20;63.30
37560;DHT22;23398;50.928;7.084;2024-02-15T15:52:34;20.20;63.30
37560;DHT22;23398;50.928;7.084;2024-02-15T15:55:00;20.10;63.30
37560;DHT22;23398;50.928;7.084;2024-02-15T15:57:26;20.10;63.40